CheckWX is a tool to help pilots better visualize weather data.  It is not intended as a substitute for an official pre-flight weather briefing.

05:44:47 UTC

CYVM TAF
Qikiqtarjuaq Airport
Qikiqtarjuaq, Canada
TAF CYVM 240038Z 2401/2413 VRB03KT P6SM BKN150 OVC220 RMK FCST BASED ON AUTO OBS. NXT FCST BY 240700Z

Feb-24@
01:00 UTC

Feb-24 @ 01:00 UTC

Feb-24@
13:00 UTC

Feb-24 @ 13:00 UTC

TAF CYVM 240038Z 2401/2413 VRB03KT P6SM BKN150 OVC220 RMK FCST BASED ON AUTO OBS. NXT FCST BY 240700Z
Wind
  • Variable at 3 KTS
Cloud Levels
  • Broken at 15,000' AGL
  • Overcast at 22,000' AGL